sensor_id;sensor_type;location;lat;lon;timestamp;pressure;altitude;pressure_sealevel;temperature;humidity
60465;BME280;46314;52.392;9.758;2023-09-19T00:01:27;99850.81;;;17.95;100.00
60465;BME280;46314;52.392;9.758;2023-09-19T00:03:55;99852.13;;;18.70;100.00
60465;BME280;46314;52.392;9.758;2023-09-19T00:06:22;99854.34;;;18.58;100.00
60465;BME280;46314;52.392;9.758;2023-09-19T00:08:48;99849.91;;;18.57;100.00
60465;BME280;46314;52.392;9.758;2023-09-19T00:11:14;99856.41;;;18.38;100.00
60465;BME280;46314;52.392;9.758;2023-09-19T00:13:41;99858.50;;;17.98;100.00
60465;BME280;46314;52.392;9.758;2023-09-19T00:16:08;99855.50;;;17.87;100.00
60465;BME280;46314;52.392;9.758;2023-09-19T00:18:36;99842.47;;;17.79;100.00
60465;BME280;46314;52.392;9.758;2023-09-19T00:21:04;99849.84;;;18.07;100.00
60465;BME280;46314;52.392;9.758;2023-09-19T00:23:30;99850.66;;;18.30;100.00
60465;BME280;46314;52.392;9.758;2023-09-19T00:25:58;99845.78;;;18.04;100.00
60465;BME280;46314;52.392;9.758;2023-09-19T00:28:24;99850.22;;;18.28;100.00
60465;BME280;46314;52.392;9.758;2023-09-19T00:30:51;99847.53;;;18.82;100.00
60465;BME280;46314;52.392;9.758;2023-09-19T00:33:18;99850.53;;;18.46;100.00
60465;BME280;46314;52.392;9.758;2023-09-19T00:35:48;99848.78;;;18.15;100.00
60465;BME280;46314;52.392;9.758;2023-09-19T00:38:16;99846.19;;;18.49;100.00
60465;BME280;46314;52.392;9.758;2023-09-19T00:40:43;99854.59;;;18.26;100.00
60465;BME280;46314;52.392;9.758;2023-09-19T00:43:10;99862.72;;;18.54;100.00
60465;BME280;46314;52.392;9.758;2023-09-19T00:45:37;99851.97;;;18.83;100.00
60465;BME280;46314;52.392;9.758;2023-09-19T00:48:04;99857.06;;;18.31;100.00
60465;BME280;46314;52.392;9.758;2023-09-19T00:50:31;99856.47;;;18.41;100.00
60465;BME280;46314;52.392;9.758;2023-09-19T00:52:58;99860.13;;;18.68;100.00
60465;BME280;46314;52.392;9.758;2023-09-19T00:55:28;99870.34;;;18.80;100.00
60465;BME280;46314;52.392;9.758;2023-09-19T00:57:56;99866.75;;;18.57;100.00
60465;BME280;46314;52.392;9.758;2023-09-19T01:00:24;99882.66;;;18.95;100.00
60465;BME280;46314;52.392;9.758;2023-09-19T01:02:51;99878.34;;;19.28;99.72
60465;BME280;46314;52.392;9.758;2023-09-19T01:05:21;99894.97;;;19.14;99.37
60465;BME280;46314;52.392;9.758;2023-09-19T01:07:47;99892.59;;;18.89;98.97
60465;BME280;46314;52.392;9.758;2023-09-19T01:10:16;99892.59;;;18.43;100.00
60465;BME280;46314;52.392;9.758;2023-09-19T01:12:50;99898.00;;;18.78;100.00
60465;BME280;46314;52.392;9.758;2023-09-19T01:15:28;99901.19;;;18.77;100.00
60465;BME280;46314;52.392;9.758;2023-09-19T01:18:02;99906.06;;;18.80;100.00
60465;BME280;46314;52.392;9.758;2023-09-19T01:20:37;99903.13;;;18.72;100.00
60465;BME280;46314;52.392;9.758;2023-09-19T01:23:13;99899.88;;;18.24;100.00
60465;BME280;46314;52.392;9.758;2023-09-19T01:26:03;99915.13;;;18.92;100.00
60465;BME280;46314;52.392;9.758;2023-09-19T01:28:34;99915.84;;;18.63;100.00
60465;BME280;46314;52.392;9.758;2023-09-19T01:31:09;99923.25;;;18.51;100.00
60465;BME280;46314;52.392;9.758;2023-09-19T01:33:57;99916.94;;;19.04;100.00
60465;BME280;46314;52.392;9.758;2023-09-19T01:36:24;99918.06;;;18.53;100.00
60465;BME280;46314;52.392;9.758;2023-09-19T01:38:51;99923.00;;;18.17;100.00
60465;BME280;46314;52.392;9.758;2023-09-19T01:41:23;99931.81;;;18.82;100.00
60465;BME280;46314;52.392;9.758;2023-09-19T01:43:53;99932.06;;;18.96;100.00
60465;BME280;46314;52.392;9.758;2023-09-19T01:46:25;99934.28;;;18.64;100.00
60465;BME280;46314;52.392;9.758;2023-09-19T01:49:04;99932.44;;;18.71;100.00
60465;BME280;46314;52.392;9.758;2023-09-19T01:51:36;99938.84;;;18.72;99.33
60465;BME280;46314;52.392;9.758;2023-09-19T01:54:09;99939.28;;;18.74;100.00
60465;BME280;46314;52.392;9.758;2023-09-19T01:56:42;99938.47;;;18.73;100.00
60465;BME280;46314;52.392;9.758;2023-09-19T01:59:13;99932.88;;;18.50;100.00
60465;BME280;46314;52.392;9.758;2023-09-19T02:01:42;99943.31;;;18.96;98.50
60465;BME280;46314;52.392;9.758;2023-09-19T02:04:11;99933.66;;;18.51;100.00
60465;BME280;46314;52.392;9.758;2023-09-19T02:06:39;99937.69;;;18.30;100.00
60465;BME280;46314;52.392;9.758;2023-09-19T02:09:06;99943.91;;;18.63;100.00
60465;BME280;46314;52.392;9.758;2023-09-19T02:11:32;99944.75;;;18.86;100.00
60465;BME280;46314;52.392;9.758;2023-09-19T02:13:59;99956.41;;;19.11;98.92
60465;BME280;46314;52.392;9.758;2023-09-19T02:16:25;99954.91;;;18.29;100.00
60465;BME280;46314;52.392;9.758;2023-09-19T02:18:53;99949.66;;;18.47;100.00
60465;BME280;46314;52.392;9.758;2023-09-19T02:21:20;99953.69;;;19.19;97.54
60465;BME280;46314;52.392;9.758;2023-09-19T02:23:46;99953.28;;;18.70;99.84
60465;BME280;46314;52.392;9.758;2023-09-19T02:26:13;99959.09;;;19.04;98.10
60465;BME280;46314;52.392;9.758;2023-09-19T02:28:39;99963.19;;;19.34;95.61
60465;BME280;46314;52.392;9.758;2023-09-19T02:31:06;99967.25;;;19.13;96.56
60465;BME280;46314;52.392;9.758;2023-09-19T02:33:32;99977.47;;;18.98;97.73
60465;BME280;46314;52.392;9.758;2023-09-19T02:36:01;99975.25;;;18.65;99.89
60465;BME280;46314;52.392;9.758;2023-09-19T02:38:28;99982.22;;;19.17;96.04
60465;BME280;46314;52.392;9.758;2023-09-19T02:40:54;99969.63;;;18.65;97.89
60465;BME280;46314;52.392;9.758;2023-09-19T02:43:21;99973.59;;;18.83;97.37
60465;BME280;46314;52.392;9.758;2023-09-19T02:45:47;99973.03;;;18.97;96.22
60465;BME280;46314;52.392;9.758;2023-09-19T02:48:14;99965.63;;;18.23;98.92
60465;BME280;46314;52.392;9.758;2023-09-19T02:50:41;99971.25;;;18.66;97.92
60465;BME280;46314;52.392;9.758;2023-09-19T02:53:09;99966.28;;;19.02;93.40
60465;BME280;46314;52.392;9.758;2023-09-19T02:55:36;99976.03;;;18.85;95.59
60465;BME280;46314;52.392;9.758;2023-09-19T02:58:03;99968.78;;;19.07;93.58
60465;BME280;46314;52.392;9.758;2023-09-19T03:00:29;99968.31;;;19.05;94.04
60465;BME280;46314;52.392;9.758;2023-09-19T03:02:56;99967.63;;;19.11;93.04
60465;BME280;46314;52.392;9.758;2023-09-19T03:05:23;99974.09;;;18.89;94.68
60465;BME280;46314;52.392;9.758;2023-09-19T03:07:50;99980.72;;;19.00;93.24
60465;BME280;46314;52.392;9.758;2023-09-19T03:10:18;99985.94;;;18.79;93.04
60465;BME280;46314;52.392;9.758;2023-09-19T03:12:45;99980.69;;;17.95;98.45
60465;BME280;46314;52.392;9.758;2023-09-19T03:15:12;99981.88;;;17.94;99.22
60465;BME280;46314;52.392;9.758;2023-09-19T03:17:42;99990.25;;;18.10;98.87
60465;BME280;46314;52.392;9.758;2023-09-19T03:20:09;99983.78;;;18.10;97.97
60465;BME280;46314;52.392;9.758;2023-09-19T03:22:36;99990.09;;;18.65;95.15
60465;BME280;46314;52.392;9.758;2023-09-19T03:25:03;99994.31;;;18.75;94.08
60465;BME280;46314;52.392;9.758;2023-09-19T03:27:31;99997.34;;;18.66;93.68
60465;BME280;46314;52.392;9.758;2023-09-19T03:29:57;99999.59;;;18.38;94.70
60465;BME280;46314;52.392;9.758;2023-09-19T03:32:24;100004.34;;;18.33;97.00
60465;BME280;46314;52.392;9.758;2023-09-19T03:34:51;100003.56;;;18.56;94.99
60465;BME280;46314;52.392;9.758;2023-09-19T03:37:17;100021.78;;;18.23;95.53
60465;BME280;46314;52.392;9.758;2023-09-19T03:39:44;100020.88;;;18.39;95.50
60465;BME280;46314;52.392;9.758;2023-09-19T03:42:10;100027.25;;;18.16;95.77
60465;BME280;46314;52.392;9.758;2023-09-19T03:44:38;100018.16;;;18.03;96.71
60465;BME280;46314;52.392;9.758;2023-09-19T03:47:05;100019.28;;;17.83;97.13
60465;BME280;46314;52.392;9.758;2023-09-19T03:49:31;100018.16;;;18.42;94.34
60465;BME280;46314;52.392;9.758;2023-09-19T03:51:58;100016.88;;;18.20;94.35
60465;BME280;46314;52.392;9.758;2023-09-19T03:54:24;100021.47;;;18.48;94.07
60465;BME280;46314;52.392;9.758;2023-09-19T03:56:51;100026.59;;;18.23;92.86
60465;BME280;46314;52.392;9.758;2023-09-19T03:59:17;100009.47;;;18.70;91.20
60465;BME280;46314;52.392;9.758;2023-09-19T04:01:45;100012.25;;;18.90;89.25
60465;BME280;46314;52.392;9.758;2023-09-19T04:04:12;100004.63;;;18.90;87.76
60465;BME280;46314;52.392;9.758;2023-09-19T04:06:38;100007.81;;;18.89;87.87
60465;BME280;46314;52.392;9.758;2023-09-19T04:09:05;100010.06;;;18.60;87.03
60465;BME280;46314;52.392;9.758;2023-09-19T04:11:31;100013.81;;;18.68;86.55
60465;BME280;46314;52.392;9.758;2023-09-19T04:13:58;100013.69;;;18.61;86.52
60465;BME280;46314;52.392;9.758;2023-09-19T04:16:24;100015.50;;;18.72;86.51
60465;BME280;46314;52.392;9.758;2023-09-19T04:18:52;100033.13;;;17.75;92.07
60465;BME280;46314;52.392;9.758;2023-09-19T04:21:19;100030.19;;;17.52;92.50
60465;BME280;46314;52.392;9.758;2023-09-19T04:23:45;100036.97;;;18.03;91.70
60465;BME280;46314;52.392;9.758;2023-09-19T04:26:12;100043.44;;;18.23;91.69
60465;BME280;46314;52.392;9.758;2023-09-19T04:28:38;100037.09;;;17.90;92.11
60465;BME280;46314;52.392;9.758;2023-09-19T04:31:05;100029.47;;;17.39;95.73
60465;BME280;46314;52.392;9.758;2023-09-19T04:33:31;100032.44;;;17.63;94.71
60465;BME280;46314;52.392;9.758;2023-09-19T04:35:59;100035.19;;;17.43;95.75
60465;BME280;46314;52.392;9.758;2023-09-19T04:38:40;100045.88;;;17.73;95.14
60465;BME280;46314;52.392;9.758;2023-09-19T04:41:07;100043.28;;;17.64;96.04
60465;BME280;46314;52.392;9.758;2023-09-19T04:43:33;100047.84;;;18.43;92.18
60465;BME280;46314;52.392;9.758;2023-09-19T04:46:00;100049.69;;;18.55;90.93
60465;BME280;46314;52.392;9.758;2023-09-19T04:48:26;100064.06;;;17.79;94.77
60465;BME280;46314;52.392;9.758;2023-09-19T04:50:53;100064.16;;;18.18;91.75
60465;BME280;46314;52.392;9.758;2023-09-19T04:53:21;100065.22;;;18.29;91.03
60465;BME280;46314;52.392;9.758;2023-09-19T04:55:50;100068.47;;;18.31;90.89
60465;BME280;46314;52.392;9.758;2023-09-19T04:58:16;100069.41;;;18.00;92.15
60465;BME280;46314;52.392;9.758;2023-09-19T05:00:43;100072.44;;;18.50;90.96
60465;BME280;46314;52.392;9.758;2023-09-19T05:03:09;100073.16;;;17.56;95.92
60465;BME280;46314;52.392;9.758;2023-09-19T05:05:36;100080.78;;;18.07;93.80
60465;BME280;46314;52.392;9.758;2023-09-19T05:08:03;100077.66;;;17.77;93.87
60465;BME280;46314;52.392;9.758;2023-09-19T05:10:33;100068.59;;;17.84;94.54
60465;BME280;46314;52.392;9.758;2023-09-19T05:13:00;100072.38;;;17.40;95.73
60465;BME280;46314;52.392;9.758;2023-09-19T05:15:26;100073.69;;;17.62;94.60
60465;BME280;46314;52.392;9.758;2023-09-19T05:17:53;100074.00;;;18.08;93.76
60465;BME280;46314;52.392;9.758;2023-09-19T05:20:24;100079.06;;;18.03;93.64
60465;BME280;46314;52.392;9.758;2023-09-19T05:22:57;100077.19;;;18.26;91.56
60465;BME280;46314;52.392;9.758;2023-09-19T05:25:24;100089.59;;;17.90;92.15
60465;BME280;46314;52.392;9.758;2023-09-19T05:27:54;100081.91;;;17.87;91.71
60465;BME280;46314;52.392;9.758;2023-09-19T05:30:21;100099.06;;;17.85;92.53
60465;BME280;46314;52.392;9.758;2023-09-19T05:32:49;100089.00;;;18.16;88.57
60465;BME280;46314;52.392;9.758;2023-09-19T05:35:15;100091.81;;;17.49;92.12
60465;BME280;46314;52.392;9.758;2023-09-19T05:37:42;100100.66;;;17.67;91.33
60465;BME280;46314;52.392;9.758;2023-09-19T05:40:09;100103.31;;;18.11;89.15
60465;BME280;46314;52.392;9.758;2023-09-19T05:42:36;100104.53;;;18.29;86.24
60465;BME280;46314;52.392;9.758;2023-09-19T05:45:04;100112.13;;;18.29;86.37
60465;BME280;46314;52.392;9.758;2023-09-19T05:47:31;100115.13;;;18.20;86.58
60465;BME280;46314;52.392;9.758;2023-09-19T05:49:58;100122.56;;;18.28;84.61
60465;BME280;46314;52.392;9.758;2023-09-19T05:52:24;100136.06;;;17.87;88.65
60465;BME280;46314;52.392;9.758;2023-09-19T05:54:51;100144.44;;;18.39;84.10
60465;BME280;46314;52.392;9.758;2023-09-19T05:57:17;100170.97;;;18.41;82.62
60465;BME280;46314;52.392;9.758;2023-09-19T05:59:43;100169.56;;;18.31;82.19
60465;BME280;46314;52.392;9.758;2023-09-19T06:02:11;100174.69;;;18.45;83.88
60465;BME280;46314;52.392;9.758;2023-09-19T06:04:38;100167.56;;;18.51;82.84
60465;BME280;46314;52.392;9.758;2023-09-19T06:07:04;100172.69;;;18.10;83.79
60465;BME280;46314;52.392;9.758;2023-09-19T06:09:31;100166.13;;;18.22;85.71
60465;BME280;46314;52.392;9.758;2023-09-19T06:11:57;100175.41;;;18.42;83.32
60465;BME280;46314;52.392;9.758;2023-09-19T06:14:24;100178.28;;;18.10;85.65
60465;BME280;46314;52.392;9.758;2023-09-19T06:16:50;100180.25;;;18.26;83.77
60465;BME280;46314;52.392;9.758;2023-09-19T06:19:18;100178.22;;;17.91;85.21
60465;BME280;46314;52.392;9.758;2023-09-19T06:21:45;100170.06;;;17.86;86.74
60465;BME280;46314;52.392;9.758;2023-09-19T06:24:11;100173.34;;;17.88;87.24
60465;BME280;46314;52.392;9.758;2023-09-19T06:26:38;100171.00;;;18.25;84.72
60465;BME280;46314;52.392;9.758;2023-09-19T06:29:04;100176.09;;;18.55;83.23
60465;BME280;46314;52.392;9.758;2023-09-19T06:31:31;100170.69;;;17.95;86.52
60465;BME280;46314;52.392;9.758;2023-09-19T06:33:57;100167.63;;;18.35;84.22
60465;BME280;46314;52.392;9.758;2023-09-19T06:36:25;100157.19;;;17.85;85.67
60465;BME280;46314;52.392;9.758;2023-09-19T06:38:51;100157.81;;;17.62;85.34
60465;BME280;46314;52.392;9.758;2023-09-19T06:41:18;100161.00;;;17.76;84.45
60465;BME280;46314;52.392;9.758;2023-09-19T06:43:45;100159.75;;;17.90;85.08
60465;BME280;46314;52.392;9.758;2023-09-19T06:46:11;100161.19;;;18.00;84.34
60465;BME280;46314;52.392;9.758;2023-09-19T06:48:38;100157.09;;;18.13;82.40
60465;BME280;46314;52.392;9.758;2023-09-19T06:51:04;100163.50;;;17.82;84.19
60465;BME280;46314;52.392;9.758;2023-09-19T06:53:32;100162.09;;;17.72;87.38
60465;BME280;46314;52.392;9.758;2023-09-19T06:55:59;100167.97;;;17.98;85.15
60465;BME280;46314;52.392;9.758;2023-09-19T06:58:26;100168.78;;;17.99;84.12
60465;BME280;46314;52.392;9.758;2023-09-19T07:00:52;100176.63;;;18.25;84.13
60465;BME280;46314;52.392;9.758;2023-09-19T07:03:19;100184.25;;;17.77;83.77
60465;BME280;46314;52.392;9.758;2023-09-19T07:05:47;100191.81;;;17.89;83.16
60465;BME280;46314;52.392;9.758;2023-09-19T07:08:14;100195.22;;;17.98;84.59
60465;BME280;46314;52.392;9.758;2023-09-19T07:10:42;100188.50;;;18.54;81.21
60465;BME280;46314;52.392;9.758;2023-09-19T07:13:09;100184.63;;;17.91;80.16
60465;BME280;46314;52.392;9.758;2023-09-19T07:15:36;100192.56;;;18.21;78.51
60465;BME280;46314;52.392;9.758;2023-09-19T07:18:04;100192.03;;;18.15;79.74
60465;BME280;46314;52.392;9.758;2023-09-19T07:20:32;100184.16;;;18.57;77.15
60465;BME280;46314;52.392;9.758;2023-09-19T07:22:59;100189.06;;;18.08;78.66
60465;BME280;46314;52.392;9.758;2023-09-19T07:25:25;100191.91;;;18.44;77.26
60465;BME280;46314;52.392;9.758;2023-09-19T07:27:54;100202.06;;;18.16;78.48
60465;BME280;46314;52.392;9.758;2023-09-19T07:30:21;100203.97;;;18.64;75.80
60465;BME280;46314;52.392;9.758;2023-09-19T07:32:49;100203.38;;;18.74;74.56
60465;BME280;46314;52.392;9.758;2023-09-19T07:35:15;100202.28;;;18.43;76.67
60465;BME280;46314;52.392;9.758;2023-09-19T07:37:42;100210.00;;;18.46;75.56
60465;BME280;46314;52.392;9.758;2023-09-19T07:40:09;100207.66;;;18.84;73.90
60465;BME280;46314;52.392;9.758;2023-09-19T07:42:36;100220.31;;;18.78;73.26
60465;BME280;46314;52.392;9.758;2023-09-19T07:45:05;100226.16;;;18.33;75.80
60465;BME280;46314;52.392;9.758;2023-09-19T07:47:32;100223.53;;;18.25;75.73
60465;BME280;46314;52.392;9.758;2023-09-19T07:49:58;100230.00;;;18.80;73.10
60465;BME280;46314;52.392;9.758;2023-09-19T07:52:25;100224.31;;;18.77;73.40
60465;BME280;46314;52.392;9.758;2023-09-19T07:54:52;100226.38;;;18.80;73.60
60465;BME280;46314;52.392;9.758;2023-09-19T07:57:18;100228.72;;;18.07;76.32
60465;BME280;46314;52.392;9.758;2023-09-19T07:59:45;100232.34;;;18.59;75.00
60465;BME280;46314;52.392;9.758;2023-09-19T08:02:13;100234.91;;;18.83;72.95
60465;BME280;46314;52.392;9.758;2023-09-19T08:04:39;100229.16;;;19.15;72.18
60465;BME280;46314;52.392;9.758;2023-09-19T08:07:06;100220.50;;;19.04;72.08
60465;BME280;46314;52.392;9.758;2023-09-19T08:09:33;100229.91;;;19.12;72.14
60465;BME280;46314;52.392;9.758;2023-09-19T08:11:59;100228.63;;;19.29;70.48
60465;BME280;46314;52.392;9.758;2023-09-19T08:14:26;100232.34;;;19.14;69.83
60465;BME280;46314;52.392;9.758;2023-09-19T08:16:56;100231.31;;;19.64;68.58
60465;BME280;46314;52.392;9.758;2023-09-19T08:19:24;100221.81;;;19.49;70.07
60465;BME280;46314;52.392;9.758;2023-09-19T08:21:51;100235.97;;;19.34;70.26
60465;BME280;46314;52.392;9.758;2023-09-19T08:24:17;100235.44;;;19.71;69.66
60465;BME280;46314;52.392;9.758;2023-09-19T08:26:44;100236.03;;;19.80;67.58
60465;BME280;46314;52.392;9.758;2023-09-19T08:29:10;100241.53;;;19.10;70.98
60465;BME280;46314;52.392;9.758;2023-09-19T08:31:37;100218.72;;;19.78;67.54
60465;BME280;46314;52.392;9.758;2023-09-19T08:34:03;100236.69;;;19.30;67.14
60465;BME280;46314;52.392;9.758;2023-09-19T08:36:31;100228.97;;;19.47;67.10
60465;BME280;46314;52.392;9.758;2023-09-19T08:38:58;100235.75;;;18.84;71.43
60465;BME280;46314;52.392;9.758;2023-09-19T08:41:24;100234.13;;;20.07;65.72
60465;BME280;46314;52.392;9.758;2023-09-19T08:43:50;100227.28;;;20.08;65.88
60465;BME280;46314;52.392;9.758;2023-09-19T08:46:20;100234.59;;;19.66;67.46
60465;BME280;46314;52.392;9.758;2023-09-19T08:49:04;100242.56;;;19.02;70.02
60465;BME280;46314;52.392;9.758;2023-09-19T08:51:41;100242.06;;;19.59;69.10
60465;BME280;46314;52.392;9.758;2023-09-19T08:54:08;100243.34;;;19.61;69.33
60465;BME280;46314;52.392;9.758;2023-09-19T08:56:38;100232.91;;;20.08;66.72
60465;BME280;46314;52.392;9.758;2023-09-19T08:59:06;100255.19;;;19.51;68.67
60465;BME280;46314;52.392;9.758;2023-09-19T09:01:33;100235.16;;;20.22;66.52
60465;BME280;46314;52.392;9.758;2023-09-19T09:04:02;100243.72;;;20.29;64.21
60465;BME280;46314;52.392;9.758;2023-09-19T09:06:29;100252.53;;;20.54;64.10
60465;BME280;46314;52.392;9.758;2023-09-19T09:08:57;100248.50;;;19.79;66.97
60465;BME280;46314;52.392;9.758;2023-09-19T09:11:24;100256.72;;;19.48;68.76
60465;BME280;46314;52.392;9.758;2023-09-19T09:13:50;100244.59;;;20.10;65.96
60465;BME280;46314;52.392;9.758;2023-09-19T09:16:17;100247.47;;;20.37;65.66
60465;BME280;46314;52.392;9.758;2023-09-19T09:18:43;100253.00;;;19.83;66.35
60465;BME280;46314;52.392;9.758;2023-09-19T09:21:10;100252.09;;;20.52;65.85
60465;BME280;46314;52.392;9.758;2023-09-19T09:26:07;100252.63;;;19.85;66.92
60465;BME280;46314;52.392;9.758;2023-09-19T09:28:34;100253.38;;;20.55;63.95
60465;BME280;46314;52.392;9.758;2023-09-19T09:31:01;100258.38;;;20.65;65.10
60465;BME280;46314;52.392;9.758;2023-09-19T09:33:28;100253.75;;;20.27;67.10
60465;BME280;46314;52.392;9.758;2023-09-19T09:35:56;100249.22;;;20.49;65.95
60465;BME280;46314;52.392;9.758;2023-09-19T09:38:25;100258.94;;;20.51;64.56
60465;BME280;46314;52.392;9.758;2023-09-19T09:40:52;100261.22;;;20.95;63.79
60465;BME280;46314;52.392;9.758;2023-09-19T09:43:28;100248.66;;;21.53;60.32
60465;BME280;46314;52.392;9.758;2023-09-19T09:46:10;100249.06;;;20.91;64.84
60465;BME280;46314;52.392;9.758;2023-09-19T09:48:36;100252.00;;;20.72;63.85
60465;BME280;46314;52.392;9.758;2023-09-19T09:51:03;100261.09;;;21.49;62.52
60465;BME280;46314;52.392;9.758;2023-09-19T09:53:30;100258.81;;;20.97;61.48
60465;BME280;46314;52.392;9.758;2023-09-19T09:55:58;100270.03;;;21.24;61.37
60465;BME280;46314;52.392;9.758;2023-09-19T09:58:27;100269.34;;;21.34;59.63
60465;BME280;46314;52.392;9.758;2023-09-19T10:00:53;100266.81;;;19.49;65.96
60465;BME280;46314;52.392;9.758;2023-09-19T10:03:20;100263.19;;;20.65;62.44
60465;BME280;46314;52.392;9.758;2023-09-19T10:05:53;100257.72;;;21.06;60.34
60465;BME280;46314;52.392;9.758;2023-09-19T10:08:19;100267.69;;;20.69;60.30
60465;BME280;46314;52.392;9.758;2023-09-19T10:10:46;100269.44;;;20.28;64.79
60465;BME280;46314;52.392;9.758;2023-09-19T10:13:14;100268.38;;;20.89;61.66
60465;BME280;46314;52.392;9.758;2023-09-19T10:15:43;100277.44;;;21.70;58.42
60465;BME280;46314;52.392;9.758;2023-09-19T10:18:10;100264.50;;;20.71;60.29
60465;BME280;46314;52.392;9.758;2023-09-19T10:20:38;100265.78;;;20.77;62.49
60465;BME280;46314;52.392;9.758;2023-09-19T10:23:06;100264.59;;;21.42;61.02
60465;BME280;46314;52.392;9.758;2023-09-19T10:25:36;100268.47;;;20.96;61.68
60465;BME280;46314;52.392;9.758;2023-09-19T10:28:05;100259.72;;;21.05;59.20
60465;BME280;46314;52.392;9.758;2023-09-19T10:30:32;100258.63;;;21.13;60.33
60465;BME280;46314;52.392;9.758;2023-09-19T10:33:04;100256.56;;;20.80;62.07
60465;BME280;46314;52.392;9.758;2023-09-19T10:35:32;100259.06;;;21.49;60.02
60465;BME280;46314;52.392;9.758;2023-09-19T10:38:00;100268.03;;;21.25;59.47
60465;BME280;46314;52.392;9.758;2023-09-19T10:40:27;100261.81;;;20.28;63.71
60465;BME280;46314;52.392;9.758;2023-09-19T10:42:55;100264.78;;;21.23;58.03
60465;BME280;46314;52.392;9.758;2023-09-19T10:45:26;100248.53;;;21.12;62.13
60465;BME280;46314;52.392;9.758;2023-09-19T10:47:55;100257.72;;;21.40;60.24
60465;BME280;46314;52.392;9.758;2023-09-19T10:50:23;100260.75;;;21.95;59.04
60465;BME280;46314;52.392;9.758;2023-09-19T10:52:50;100257.88;;;20.86;60.88
60465;BME280;46314;52.392;9.758;2023-09-19T10:55:20;100278.81;;;21.49;60.69
60465;BME280;46314;52.392;9.758;2023-09-19T10:57:47;100258.72;;;20.90;61.55
60465;BME280;46314;52.392;9.758;2023-09-19T11:00:14;100272.41;;;20.88;59.37
60465;BME280;46314;52.392;9.758;2023-09-19T11:02:41;100267.03;;;20.53;60.63
60465;BME280;46314;52.392;9.758;2023-09-19T11:05:12;100269.75;;;21.33;57.48
60465;BME280;46314;52.392;9.758;2023-09-19T11:07:58;100266.53;;;21.34;58.43
60465;BME280;46314;52.392;9.758;2023-09-19T11:10:49;100263.63;;;21.27;57.88
60465;BME280;46314;52.392;9.758;2023-09-19T11:13:26;100266.19;;;21.06;59.65
60465;BME280;46314;52.392;9.758;2023-09-19T11:16:04;100257.63;;;21.29;56.37
60465;BME280;46314;52.392;9.758;2023-09-19T11:18:53;100257.53;;;21.22;59.27
60465;BME280;46314;52.392;9.758;2023-09-19T11:21:51;100264.66;;;21.46;58.15
60465;BME280;46314;52.392;9.758;2023-09-19T11:24:32;100254.28;;;20.89;56.96
60465;BME280;46314;52.392;9.758;2023-09-19T11:27:15;100253.22;;;21.65;57.44
60465;BME280;46314;52.392;9.758;2023-09-19T11:29:41;100256.03;;;22.06;56.24
60465;BME280;46314;52.392;9.758;2023-09-19T11:32:08;100257.91;;;21.95;54.45
60465;BME280;46314;52.392;9.758;2023-09-19T11:34:44;100243.88;;;22.02;54.14
60465;BME280;46314;52.392;9.758;2023-09-19T11:40:32;100248.53;;;21.84;54.79
60465;BME280;46314;52.392;9.758;2023-09-19T11:42:58;100251.16;;;22.03;54.88
60465;BME280;46314;52.392;9.758;2023-09-19T11:48:43;100236.00;;;21.44;56.96
60465;BME280;46314;52.392;9.758;2023-09-19T11:51:18;100247.75;;;21.83;55.08
60465;BME280;46314;52.392;9.758;2023-09-19T11:53:45;100252.78;;;22.56;53.45
60465;BME280;46314;52.392;9.758;2023-09-19T11:56:15;100264.50;;;22.55;52.73
60465;BME280;46314;52.392;9.758;2023-09-19T11:58:42;100241.44;;;22.01;53.31
60465;BME280;46314;52.392;9.758;2023-09-19T12:01:12;100255.75;;;21.78;55.11
60465;BME280;46314;52.392;9.758;2023-09-19T12:03:42;100258.00;;;22.02;53.65
60465;BME280;46314;52.392;9.758;2023-09-19T12:06:12;100254.91;;;21.73;55.44
60465;BME280;46314;52.392;9.758;2023-09-19T12:08:39;100250.41;;;22.65;53.04
60465;BME280;46314;52.392;9.758;2023-09-19T12:11:06;100249.66;;;21.75;54.85
60465;BME280;46314;52.392;9.758;2023-09-19T12:13:33;100263.19;;;21.97;55.53
60465;BME280;46314;52.392;9.758;2023-09-19T12:16:00;100260.06;;;22.09;55.08
60465;BME280;46314;52.392;9.758;2023-09-19T12:18:27;100245.97;;;22.12;54.47
60465;BME280;46314;52.392;9.758;2023-09-19T12:20:54;100251.00;;;21.17;59.04
60465;BME280;46314;52.392;9.758;2023-09-19T12:23:20;100248.25;;;21.55;56.34
60465;BME280;46314;52.392;9.758;2023-09-19T12:25:47;100245.00;;;21.19;60.25
60465;BME280;46314;52.392;9.758;2023-09-19T12:28:13;100244.22;;;22.42;55.70
60465;BME280;46314;52.392;9.758;2023-09-19T12:30:41;100250.47;;;22.17;55.24
60465;BME280;46314;52.392;9.758;2023-09-19T12:33:15;100242.25;;;22.01;57.38
60465;BME280;46314;52.392;9.758;2023-09-19T12:35:42;100248.97;;;22.27;56.26
60465;BME280;46314;52.392;9.758;2023-09-19T12:38:09;100250.25;;;21.92;57.53
60465;BME280;46314;52.392;9.758;2023-09-19T12:40:35;100259.47;;;22.30;56.11
60465;BME280;46314;52.392;9.758;2023-09-19T12:43:02;100244.81;;;21.72;58.58
60465;BME280;46314;52.392;9.758;2023-09-19T12:45:29;100244.16;;;22.31;56.29
60465;BME280;46314;52.392;9.758;2023-09-19T12:48:20;100256.38;;;21.60;57.36
60465;BME280;46314;52.392;9.758;2023-09-19T12:51:02;100238.88;;;20.30;64.67
60465;BME280;46314;52.392;9.758;2023-09-19T12:53:29;100242.59;;;21.21;60.28
60465;BME280;46314;52.392;9.758;2023-09-19T12:55:59;100239.69;;;21.14;59.75
60465;BME280;46314;52.392;9.758;2023-09-19T12:58:26;100241.78;;;21.21;58.48
60465;BME280;46314;52.392;9.758;2023-09-19T13:00:53;100224.56;;;20.42;62.51
60465;BME280;46314;52.392;9.758;2023-09-19T13:03:27;100227.97;;;20.78;60.34
60465;BME280;46314;52.392;9.758;2023-09-19T13:05:55;100231.34;;;21.55;59.12